Time;durP1;ratioP1;P1;durP2;ratioP2;P2;SDS_P1;SDS_P2;PMS_P1;PMS_P2;Temp;Humidity;BMP_temperature;BMP_pressure;BME280_temperature;BME280_humidity;BME280_pressure;Samples;Min_cycle;Max_cycle;Signal;HPM_P1;HPM_P2
2020/12/14 00:02:21;;;;;;;7.43;2.90;;;;;;;8.16;92.15;100387.47;10392182;28;20053;-80
2020/12/14 00:07:22;;;;;;;7.72;2.28;;;;;;;8.08;92.36;100382.28;10392489;28;20512;-82
2020/12/14 00:12:23;;;;;;;6.13;2.30;;;;;;;7.80;93.11;100350.94;10370360;28;20038;-81
2020/12/14 00:17:23;;;;;;;4.80;2.38;;;;;;;7.66;92.25;100331.78;10396540;28;20037;-82
2020/12/14 00:22:24;;;;;;;6.97;2.60;;;;;;;7.79;92.31;100341.31;10394757;28;20052;-80
2020/12/14 00:27:24;;;;;;;6.90;2.50;;;;;;;8.16;92.74;100392.06;10395358;28;20549;-81
2020/12/14 00:32:25;;;;;;;6.65;2.47;;;;;;;7.62;92.83;100311.00;10390143;28;20045;-82
2020/12/14 00:37:25;;;;;;;6.07;2.47;;;;;;;8.15;92.74;100379.72;10395932;28;20539;-81
2020/12/14 00:42:26;;;;;;;9.57;2.60;;;;;;;7.89;92.54;100324.59;10393411;28;20146;-81
2020/12/14 00:47:26;;;;;;;8.25;3.47;;;;;;;8.25;92.97;100379.16;10396926;28;20056;-80
2020/12/14 00:52:26;;;;;;;11.70;4.15;;;;;;;8.26;93.37;100386.13;10392221;28;20081;-81
2020/12/14 00:57:29;;;;;;;10.45;3.90;;;;;;;8.09;94.31;100356.91;10395231;28;20080;-81
2020/12/14 01:02:30;;;;;;;10.90;4.35;;;;;;;8.22;95.17;100363.72;10392882;28;20099;-80
2020/12/14 01:07:30;;;;;;;9.80;3.83;;;;;;;8.18;96.02;100346.72;10395016;28;20446;-80
2020/12/14 01:12:31;;;;;;;10.23;3.40;;;;;;;7.83;97.41;100331.38;10393890;28;20800;-81
2020/12/14 01:17:32;;;;;;;9.10;4.18;;;;;;;8.16;97.91;100370.50;10393229;28;20940;-83
2020/12/14 01:22:32;;;;;;;10.95;3.65;;;;;;;8.13;98.43;100371.22;10393509;28;20037;-83
2020/12/14 01:27:33;;;;;;;9.88;3.60;;;;;;;8.00;99.49;100340.97;10392156;28;20033;-83
2020/12/14 01:32:33;;;;;;;8.05;3.80;;;;;;;8.13;99.30;100365.84;10391608;28;20052;-82
2020/12/14 01:37:33;;;;;;;10.48;4.25;;;;;;;7.73;100.00;100315.81;10392786;28;20034;-82
2020/12/14 01:42:41;;;;;;;10.30;3.70;;;;;;;7.59;100.00;100290.16;10386615;28;20147;-82
2020/12/14 01:47:43;;;;;;;8.50;3.90;;;;;;;7.14;100.00;100194.69;10385834;28;20044;-79
2020/12/14 01:52:46;;;;;;;12.48;4.85;;;;;;;7.74;100.00;100291.25;10390181;28;20041;-83
2020/12/14 01:57:47;;;;;;;10.18;5.25;;;;;;;7.65;100.00;100276.44;10391215;28;20068;-83
2020/12/14 02:02:47;;;;;;;10.10;5.45;;;;;;;8.03;100.00;100346.44;10391964;28;20053;-81
2020/12/14 02:07:48;;;;;;;12.82;6.07;;;;;;;8.04;100.00;100353.38;10393965;28;20069;-81
2020/12/14 02:12:48;;;;;;;12.98;6.22;;;;;;;8.04;100.00;100348.00;10389155;28;20049;-82
2020/12/14 02:17:48;;;;;;;8.60;6.30;;;;;;;7.98;100.00;100316.34;10390715;28;20048;-83
2020/12/14 02:22:49;;;;;;;8.52;6.18;;;;;;;8.29;100.00;100353.09;10372859;28;20045;-83
2020/12/14 02:27:50;;;;;;;11.15;6.40;;;;;;;8.32;100.00;100347.00;10391764;28;20181;-82
2020/12/14 02:32:50;;;;;;;8.48;7.28;;;;;;;7.62;100.00;100246.44;10389942;28;20073;-83
2020/12/14 02:37:51;;;;;;;9.63;5.38;;;;;;;8.35;100.00;100340.09;10389852;28;20041;-83
2020/12/14 02:42:51;;;;;;;9.93;4.38;;;;;;;8.50;100.00;100362.75;10388942;28;20034;-84
2020/12/14 02:47:52;;;;;;;6.93;3.80;;;;;;;8.48;100.00;100327.31;10371565;28;20034;-83
2020/12/14 02:52:52;;;;;;;5.28;3.22;;;;;;;8.17;100.00;100275.16;10372949;28;20103;-81
2020/12/14 02:57:53;;;;;;;9.13;3.58;;;;;;;8.55;100.00;100335.53;10403826;28;20037;-83
2020/12/14 03:02:53;;;;;;;8.05;3.33;;;;;;;8.53;99.92;100335.09;10383310;28;20069;-82
2020/12/14 03:07:54;;;;;;;7.68;3.28;;;;;;;8.35;100.00;100281.66;10388645;28;20050;-82
2020/12/14 03:12:54;;;;;;;6.90;3.00;;;;;;;8.62;99.92;100327.56;10389336;28;20461;-81
2020/12/14 03:17:54;;;;;;;3.88;2.50;;;;;;;8.49;99.04;100291.13;10389513;28;20045;-81
2020/12/14 03:22:55;;;;;;;10.30;3.92;;;;;;;8.67;98.74;100311.09;10390093;28;20041;-82
2020/12/14 03:27:55;;;;;;;7.15;3.25;;;;;;;8.62;99.33;100316.78;10387728;28;20037;-82
2020/12/14 03:32:56;;;;;;;6.85;2.90;;;;;;;8.70;99.59;100323.84;10385059;28;20049;-81
2020/12/14 03:37:56;;;;;;;6.05;2.83;;;;;;;8.56;100.00;100310.94;10389846;28;20052;-81
2020/12/14 03:42:57;;;;;;;5.60;3.28;;;;;;;8.24;99.93;100237.59;10386476;28;20068;-81
2020/12/14 03:47:57;;;;;;;9.93;4.50;;;;;;;8.62;100.00;100316.78;10387936;28;20038;-81
2020/12/14 03:52:58;;;;;;;6.78;4.22;;;;;;;8.77;100.00;100307.81;10386768;28;20151;-78
2020/12/14 03:57:58;;;;;;;8.80;4.60;;;;;;;8.74;100.00;100303.13;10390561;28;20045;-81
2020/12/14 04:03:01;;;;;;;6.63;4.43;;;;;;;8.21;100.00;100227.56;10388939;28;20069;-81
2020/12/14 04:08:03;;;;;;;7.78;4.80;;;;;;;8.60;100.00;100270.56;10388852;28;20049;-81
2020/12/14 04:13:04;;;;;;;10.43;4.70;;;;;;;8.45;100.00;100243.38;10348092;28;20111;-82
2020/12/14 04:18:05;;;;;;;10.45;5.30;;;;;;;8.51;100.00;100256.53;10396060;28;20063;-80
2020/12/14 04:23:05;;;;;;;10.68;5.63;;;;;;;8.73;100.00;100274.63;10393067;28;20128;-80
2020/12/14 04:28:06;;;;;;;11.65;5.65;;;;;;;8.96;100.00;100303.47;10395265;28;20088;-82
2020/12/14 04:33:07;;;;;;;9.48;6.13;;;;;;;9.13;100.00;100303.00;10393311;28;20064;-81
2020/12/14 04:38:07;;;;;;;9.95;7.65;;;;;;;8.72;100.00;100235.34;10389245;28;20605;-81
2020/12/14 04:43:09;;;;;;;10.30;7.43;;;;;;;9.01;100.00;100273.53;10392332;28;20037;-82
2020/12/14 04:48:09;;;;;;;11.25;6.72;;;;;;;9.10;100.00;100301.00;10393171;28;20048;-79
2020/12/14 04:53:10;;;;;;;9.07;5.95;;;;;;;8.77;100.00;100253.13;10391078;28;20041;-80
2020/12/14 04:58:10;;;;;;;10.23;6.45;;;;;;;8.56;100.00;100224.72;10396386;28;20042;-81
2020/12/14 05:03:11;;;;;;;15.93;7.38;;;;;;;8.31;100.00;100183.88;10390860;28;20054;-81
2020/12/14 05:08:23;;;;;;;10.10;7.25;;;;;;;8.62;100.00;100236.72;10391748;28;20056;-81
2020/12/14 05:13:28;;;;;;;8.98;6.55;;;;;;;8.93;100.00;100271.88;10393337;28;20068;-84
2020/12/14 05:18:28;;;;;;;12.73;6.57;;;;;;;8.78;100.00;100266.25;10389044;28;20494;-82
2020/12/14 05:23:32;;;;;;;5.95;5.10;;;;;;;9.22;100.00;100306.22;10392799;28;20041;-83
2020/12/14 05:28:32;;;;;;;8.38;5.43;;;;;;;9.14;100.00;100277.56;10392836;28;20116;-79
2020/12/14 05:33:33;;;;;;;8.48;4.90;;;;;;;9.38;100.00;100297.19;10393024;28;20050;-76
2020/12/14 05:38:34;;;;;;;8.07;5.00;;;;;;;9.19;100.00;100279.97;10395149;28;20087;-80
2020/12/14 05:43:35;;;;;;;12.23;6.53;;;;;;;8.54;100.00;100223.53;10396636;28;20041;-81
2020/12/14 05:48:35;;;;;;;9.40;5.75;;;;;;;9.30;100.00;100307.88;10395788;28;20042;-81
2020/12/14 05:53:50;;;;;;;11.30;5.55;;;;;;;8.99;100.00;100243.47;10384084;28;20057;-84
2020/12/14 05:58:54;;;;;;;9.32;4.30;;;;;;;9.24;100.00;100287.75;10386686;28;20557;-83
2020/12/14 06:03:55;;;;;;;7.18;3.90;;;;;;;9.22;100.00;100279.25;10384707;28;20047;-83
2020/12/14 06:09:05;;;;;;;8.93;3.88;;;;;;;9.42;100.00;100303.41;10391717;28;20233;-82
2020/12/14 06:14:07;;;;;;;9.65;4.15;;;;;;;9.39;100.00;100288.72;10374851;28;20037;-82
2020/12/14 06:19:08;;;;;;;7.37;3.30;;;;;;;9.54;100.00;100324.78;10364627;28;20120;-81
2020/12/14 06:24:17;;;;;;;6.28;3.13;;;;;;;9.20;100.00;100254.56;10389176;28;20060;-80
2020/12/14 06:29:36;;;;;;;6.40;3.45;;;;;;;9.64;100.00;100318.75;10372046;28;20034;-79
2020/12/14 06:34:38;;;;;;;5.60;2.88;;;;;;;9.20;100.00;100257.25;10389424;28;20170;-78
2020/12/14 06:39:40;;;;;;;4.75;2.05;;;;;;;9.30;100.00;100262.03;10388954;28;20064;-77
2020/12/14 06:44:41;;;;;;;5.68;2.35;;;;;;;9.64;100.00;100337.66;10392670;28;20594;-77
2020/12/14 06:49:42;;;;;;;6.00;2.60;;;;;;;9.63;100.00;100333.38;10391201;28;20049;-78
2020/12/14 06:54:47;;;;;;;4.73;2.57;;;;;;;9.39;100.00;100320.34;10390495;28;20049;-81
2020/12/14 06:59:54;;;;;;;5.70;2.63;;;;;;;9.23;99.71;100272.72;10390101;28;20071;-81
2020/12/14 07:04:55;;;;;;;4.50;2.30;;;;;;;9.54;99.65;100327.47;10398374;28;20053;-81
2020/12/14 07:10:09;;;;;;;9.82;2.85;;;;;;;9.71;100.00;100353.94;10351748;28;20480;-80
2020/12/14 07:15:25;;;;;;;5.93;2.30;;;;;;;9.66;99.40;100346.13;10402330;28;20107;-82
2020/12/14 07:20:25;;;;;;;3.97;2.30;;;;;;;9.62;100.00;100364.22;10388986;28;20434;-81
2020/12/14 07:25:26;;;;;;;3.55;2.60;;;;;;;9.54;100.00;100354.47;10384455;28;20128;-82
2020/12/14 07:30:26;;;;;;;5.00;2.33;;;;;;;9.65;99.79;100358.09;10386835;28;20049;-82
2020/12/14 07:35:27;;;;;;;7.32;2.38;;;;;;;9.34;99.70;100304.47;10385569;28;20041;-81
2020/12/14 07:40:27;;;;;;;4.82;2.35;;;;;;;9.50;100.00;100346.31;10387103;28;20637;-82
2020/12/14 07:45:28;;;;;;;6.28;2.50;;;;;;;9.71;100.00;100397.13;10370894;28;20171;-79
2020/12/14 07:50:28;;;;;;;5.13;2.50;;;;;;;9.44;100.00;100365.88;10391974;28;21207;-81
2020/12/14 07:55:29;;;;;;;8.70;2.60;;;;;;;9.69;100.00;100388.63;10396958;28;20039;-81
2020/12/14 08:00:29;;;;;;;4.15;1.95;;;;;;;9.65;100.00;100382.38;10395400;28;20501;-80
2020/12/14 08:05:30;;;;;;;4.35;2.20;;;;;;;9.65;100.00;100398.56;10394455;28;20045;-80
2020/12/14 08:10:37;;;;;;;6.07;2.25;;;;;;;9.50;100.00;100375.19;10396196;28;20048;-81
2020/12/14 08:15:38;;;;;;;2.45;1.77;;;;;;;9.44;100.00;100365.88;10385195;28;20041;-81
2020/12/14 08:20:42;;;;;;;3.85;2.08;;;;;;;9.64;100.00;100391.63;10394101;28;20060;-81
2020/12/14 08:25:51;;;;;;;3.30;1.88;;;;;;;9.10;100.00;100309.09;10378947;28;20136;-79
2020/12/14 08:30:51;;;;;;;4.10;1.77;;;;;;;9.84;99.90;100399.59;10393164;28;20048;-82
2020/12/14 08:35:54;;;;;;;4.75;1.90;;;;;;;9.76;99.98;100403.34;10388479;28;20042;-81
2020/12/14 08:41:03;;;;;;;3.35;2.03;;;;;;;9.61;99.66;100370.75;10396146;28;21164;-83
2020/12/14 08:46:05;;;;;;;3.50;1.70;;;;;;;10.02;99.12;100411.44;10397277;28;20045;-82
2020/12/14 08:51:16;;;;;;;4.60;1.97;;;;;;;9.91;98.74;100394.31;10395649;28;20116;-80
2020/12/14 08:56:21;;;;;;;3.72;1.95;;;;;;;9.57;97.47;100326.75;10393062;28;20387;-81
2020/12/14 09:01:26;;;;;;;4.80;1.88;;;;;;;9.72;98.26;100371.69;10393388;28;20056;-82
2020/12/14 09:06:35;;;;;;;5.32;1.77;;;;;;;10.12;97.09;100421.59;10398096;28;20041;-80
2020/12/14 09:11:37;;;;;;;3.15;1.65;;;;;;;10.27;96.30;100421.78;10394136;28;20033;-81
2020/12/14 09:16:50;;;;;;;6.50;1.77;;;;;;;9.94;95.04;100361.16;10372169;28;20045;-81
2020/12/14 09:21:51;;;;;;;3.65;1.80;;;;;;;10.32;94.19;100424.19;10391869;28;20139;-79
2020/12/14 09:27:01;;;;;;;5.75;2.22;;;;;;;10.88;91.98;100450.31;10395147;28;20091;-79
2020/12/14 09:32:03;;;;;;;4.20;1.42;;;;;;;10.73;91.58;100448.63;10391115;28;20759;-81
2020/12/14 09:37:05;;;;;;;6.17;1.57;;;;;;;10.28;92.89;100412.53;10391252;28;20037;-79
2020/12/14 09:42:06;;;;;;;4.13;1.70;;;;;;;9.89;93.47;100369.59;10391058;28;20048;-81
2020/12/14 09:47:06;;;;;;;5.97;1.40;;;;;;;10.41;92.95;100459.81;10392219;28;20678;-81
2020/12/14 09:52:07;;;;;;;4.07;1.50;;;;;;;10.56;93.27;100493.22;10391293;28;20052;-82
2020/12/14 09:57:08;;;;;;;4.43;1.67;;;;;;;10.34;93.37;100467.81;10358296;28;20064;-80
2020/12/14 10:02:08;;;;;;;3.78;2.15;;;;;;;10.27;93.51;100456.91;10392969;28;20089;-82
2020/12/14 10:07:09;;;;;;;3.40;1.40;;;;;;;10.54;93.48;100504.38;10386675;28;20494;-81
2020/12/14 10:12:09;;;;;;;3.47;1.45;;;;;;;10.29;92.56;100433.78;10389440;28;20132;-81
2020/12/14 10:17:10;;;;;;;6.50;1.65;;;;;;;10.78;92.00;100499.66;10390491;28;20034;-80
2020/12/14 10:22:10;;;;;;;3.95;1.60;;;;;;;10.64;92.56;100494.06;10363931;28;20053;-79
2020/12/14 10:27:11;;;;;;;4.22;1.63;;;;;;;10.06;92.05;100420.34;10391205;28;20452;-79
2020/12/14 10:32:11;;;;;;;4.82;2.28;;;;;;;10.67;92.74;100498.72;10390859;28;20053;-79
2020/12/14 10:37:12;;;;;;;3.83;1.85;;;;;;;10.78;92.04;100486.13;10351739;28;21578;-79
2020/12/14 10:42:12;;;;;;;2.97;1.52;;;;;;;10.76;91.84;100512.75;10373330;28;20989;-82
2020/12/14 10:47:13;;;;;;;8.40;1.85;;;;;;;10.74;92.06;100493.41;10384976;28;20064;-81
2020/12/14 10:52:13;;;;;;;4.25;1.77;;;;;;;10.66;90.48;100443.13;10388100;28;20103;-81
2020/12/14 10:57:14;;;;;;;6.78;2.80;;;;;;;10.51;91.14;100448.38;10387240;28;20053;-80
2020/12/14 11:02:14;;;;;;;4.85;1.85;;;;;;;9.95;91.64;100384.34;10388641;28;20249;-81
2020/12/14 11:07:15;;;;;;;7.50;1.80;;;;;;;10.88;91.17;100498.97;10391993;28;20654;-80
2020/12/14 11:12:15;;;;;;;4.25;1.55;;;;;;;10.84;90.59;100498.19;10387359;28;20080;-80
2020/12/14 11:17:16;;;;;;;11.43;2.45;;;;;;;10.91;91.30;100530.72;10386790;28;20670;-80
2020/12/14 11:22:18;;;;;;;6.85;1.88;;;;;;;10.45;90.66;100459.88;10389100;28;20097;-78
2020/12/14 11:27:19;;;;;;;8.07;2.22;;;;;;;10.85;91.18;100515.19;10384971;28;20124;-79
2020/12/14 11:32:19;;;;;;;4.35;2.05;;;;;;;10.87;91.40;100502.84;10387677;28;20037;-79
2020/12/14 11:37:20;;;;;;;6.53;1.98;;;;;;;10.60;90.77;100428.38;10390437;28;20041;-80
2020/12/14 11:42:20;;;;;;;6.45;2.03;;;;;;;10.99;90.87;100499.88;10388635;28;20060;-78
2020/12/14 11:47:23;;;;;;;5.05;2.00;;;;;;;11.21;90.30;100505.50;10390512;28;20042;-80
2020/12/14 11:52:23;;;;;;;4.88;2.45;;;;;;;11.34;88.55;100470.88;10398234;28;20611;-79
2020/12/14 11:57:24;;;;;;;9.00;2.20;;;;;;;11.46;88.65;100505.00;10387856;28;20052;-80
2020/12/14 12:02:30;;;;;;;6.07;1.75;;;;;;;11.41;87.52;100498.00;10387601;28;20049;-79
2020/12/14 12:07:30;;;;;;;4.13;1.75;;;;;;;11.38;88.68;100477.88;10388706;28;20049;-79
2020/12/14 12:12:33;;;;;;;5.82;2.30;;;;;;;11.22;86.87;100431.34;10386883;28;20701;-80
2020/12/14 12:17:33;;;;;;;;;;;;;;;11.53;87.44;100483.41;10387619;28;20041;-80
2020/12/14 12:22:34;;;;;;;6.80;2.08;;;;;;;11.39;88.45;100479.41;10384598;28;19921;-80
2020/12/14 12:27:34;;;;;;;8.82;3.50;;;;;;;11.22;86.32;100415.09;10388172;28;20065;-80
2020/12/14 12:32:35;;;;;;;5.43;1.90;;;;;;;11.53;87.37;100483.41;10385311;28;20045;-81
2020/12/14 12:37:35;;;;;;;6.00;1.92;;;;;;;11.64;87.67;100478.81;10387154;28;20042;-80
2020/12/14 12:42:36;;;;;;;7.40;2.00;;;;;;;11.30;86.55;100432.94;10391210;28;20092;-81
2020/12/14 12:47:36;;;;;;;7.80;2.00;;;;;;;11.48;86.97;100475.63;10392383;28;20049;-80
2020/12/14 12:52:37;;;;;;;4.75;1.98;;;;;;;11.47;87.05;100479.47;10394942;28;20033;-80
2020/12/14 12:57:40;;;;;;;9.63;3.15;;;;;;;11.61;86.64;100479.59;10375685;28;20050;-80
2020/12/14 13:02:41;;;;;;;5.07;1.95;;;;;;;11.53;87.14;100467.16;10386674;28;20528;-80
2020/12/14 13:07:41;;;;;;;7.18;1.70;;;;;;;11.32;85.97;100425.22;10395222;28;20041;-80
2020/12/14 13:12:41;;;;;;;4.88;1.75;;;;;;;11.54;86.27;100468.69;10393842;28;20460;-80
2020/12/14 13:17:42;;;;;;;8.52;2.47;;;;;;;11.49;86.77;100477.16;10389830;28;20129;-80
2020/12/14 13:22:42;;;;;;;8.50;2.65;;;;;;;11.36;86.88;100480.16;10388897;28;20502;-79
2020/12/14 13:27:43;;;;;;;7.43;1.90;;;;;;;11.04;87.49;100441.19;10392728;28;20044;-82
2020/12/14 13:32:44;;;;;;;8.48;2.30;;;;;;;11.19;87.76;100469.94;10392073;28;20045;-81
2020/12/14 13:37:46;;;;;;;5.03;1.95;;;;;;;11.30;86.00;100487.06;10391374;28;20556;-83
2020/12/14 13:42:46;;;;;;;5.82;2.17;;;;;;;10.93;86.79;100436.44;10388784;28;20390;-83
2020/12/14 13:47:47;;;;;;;11.43;3.05;;;;;;;11.25;86.03;100490.09;10374815;28;20037;-79
2020/12/14 13:52:47;;;;;;;6.13;1.90;;;;;;;10.84;86.41;100444.09;10391829;28;20064;-79
2020/12/14 13:57:48;;;;;;;7.93;2.28;;;;;;;11.13;86.34;100487.66;10387915;28;20045;-79
2020/12/14 14:02:48;;;;;;;10.20;2.25;;;;;;;11.09;87.17;100481.44;10391560;28;20057;-81
2020/12/14 14:07:52;;;;;;;5.05;1.88;;;;;;;10.84;86.54;100452.22;10389645;28;20041;-80
2020/12/14 14:12:52;;;;;;;6.63;2.25;;;;;;;11.18;85.98;100500.84;10387285;28;20148;-82
2020/12/14 14:17:53;;;;;;;9.52;2.42;;;;;;;10.93;86.69;100484.34;10382697;28;20122;-83
2020/12/14 14:22:53;;;;;;;6.38;2.45;;;;;;;11.07;86.93;100505.38;10387810;28;20041;-79
2020/12/14 14:27:55;;;;;;;8.45;2.40;;;;;;;10.95;86.76;100490.94;10388253;28;20098;-81
2020/12/14 14:32:55;;;;;;;9.60;2.00;;;;;;;11.02;86.88;100514.59;10385933;28;20041;-79
2020/12/14 14:37:58;;;;;;;6.05;2.47;;;;;;;10.71;86.71;100450.91;10389122;28;20045;-81
2020/12/14 14:42:58;;;;;;;12.18;2.42;;;;;;;11.06;86.05;100509.22;10382462;28;20049;-81
2020/12/14 14:47:59;;;;;;;7.90;2.33;;;;;;;10.08;86.35;100388.34;10388508;28;20553;-81
2020/12/14 14:53:00;;;;;;;12.88;3.15;;;;;;;10.90;86.50;100510.22;10384985;28;20525;-80
2020/12/14 14:58:00;;;;;;;10.70;2.65;;;;;;;10.52;86.50;100460.72;10386243;28;20048;-82
2020/12/14 15:03:01;;;;;;;9.52;2.60;;;;;;;10.77;86.66;100530.50;10383501;28;20106;-80
2020/12/14 15:08:01;;;;;;;8.23;2.67;;;;;;;10.60;86.52;100531.09;10386032;28;20056;-78
2020/12/14 15:13:02;;;;;;;5.22;1.85;;;;;;;10.51;86.54;100518.63;10384974;28;20049;-79
2020/12/14 15:18:02;;;;;;;10.73;2.67;;;;;;;10.40;86.71;100512.31;10387197;28;20467;-79
2020/12/14 15:23:03;;;;;;;11.75;2.05;;;;;;;10.58;86.75;100544.94;10387495;28;20050;-79
2020/12/14 15:28:03;;;;;;;8.35;2.45;;;;;;;10.36;87.00;100522.28;10385973;28;20083;-79
2020/12/14 15:33:04;;;;;;;5.13;2.20;;;;;;;10.37;86.73;100534.63;10380850;28;20052;-78
2020/12/14 15:38:04;;;;;;;6.78;2.53;;;;;;;9.97;86.29;100495.47;10397990;28;20047;-78
2020/12/14 15:43:04;;;;;;;5.65;2.50;;;;;;;10.29;86.55;100554.59;10385190;28;20979;-77
2020/12/14 15:48:05;;;;;;;9.77;2.90;;;;;;;10.24;86.35;100541.38;10387288;28;20042;-78
2020/12/14 15:53:05;;;;;;;10.90;3.58;;;;;;;10.24;86.53;100562.97;10387422;28;20041;-78
2020/12/14 15:58:07;;;;;;;8.57;3.00;;;;;;;9.84;86.36;100494.09;10386346;28;20052;-78
2020/12/14 16:03:07;;;;;;;11.70;3.70;;;;;;;9.41;86.93;100455.63;10366309;28;20049;-77
2020/12/14 16:08:08;;;;;;;21.55;10.63;;;;;;;10.11;87.04;100565.91;10378888;28;20479;-79
2020/12/14 16:13:08;;;;;;;9.75;3.05;;;;;;;10.14;86.58;100586.75;10382789;28;20134;-79
2020/12/14 16:18:09;;;;;;;10.23;3.58;;;;;;;10.13;86.54;100574.38;10391126;28;20125;-79
2020/12/14 16:23:09;;;;;;;11.80;3.90;;;;;;;10.08;86.57;100550.41;10394247;28;20150;-78
2020/12/14 16:28:11;;;;;;;7.53;3.03;;;;;;;10.11;87.10;100538.88;10385394;28;20577;-80
2020/12/14 16:33:11;;;;;;;10.00;3.58;;;;;;;10.12;87.12;100555.88;10374171;28;20044;-77
2020/12/14 16:38:12;;;;;;;7.45;2.85;;;;;;;10.21;86.81;100547.50;10387386;28;20078;-85
2020/12/14 16:43:12;;;;;;;7.82;3.35;;;;;;;9.49;86.70;100449.19;10373988;28;20045;-84
2020/12/14 16:48:12;;;;;;;12.25;3.63;;;;;;;10.29;87.49;100570.81;10378709;28;20056;-76
2020/12/14 16:53:13;;;;;;;8.68;3.20;;;;;;;10.06;88.45;100525.66;10375475;28;20051;-77
2020/12/14 16:58:14;;;;;;;14.50;3.63;;;;;;;10.23;87.58;100519.00;10398457;28;20053;-79
2020/12/14 17:03:14;;;;;;;14.45;3.90;;;;;;;9.97;88.42;100481.97;10392932;28;21702;-81
2020/12/14 17:08:15;;;;;;;13.15;4.35;;;;;;;10.23;88.62;100512.78;10391367;28;20045;-79
2020/12/14 17:13:15;;;;;;;16.17;4.82;;;;;;;10.41;88.61;100540.88;10385925;28;20409;-79
2020/12/14 17:22:40;;;;;;;12.88;5.00;;;;;;;10.05;90.50;100529.53;10522110;27;20359;-79
2020/12/14 17:27:40;;;;;;;17.60;5.50;;;;;;;9.97;91.31;100517.06;10494937;28;20118;-77
2020/12/14 17:32:41;;;;;;;12.93;5.28;;;;;;;9.85;92.21;100519.94;10478024;28;20048;-79
2020/12/14 17:37:42;;;;;;;14.18;5.38;;;;;;;9.91;92.81;100518.50;10478748;28;20628;-78
2020/12/14 17:42:42;;;;;;;17.67;5.00;;;;;;;10.09;92.42;100546.56;10476258;28;20044;-80
2020/12/14 17:47:43;;;;;;;10.50;4.93;;;;;;;10.07;92.84;100548.06;10491348;28;20044;-80
2020/12/14 17:52:43;;;;;;;12.00;4.82;;;;;;;9.58;93.34;100474.03;10503027;28;20054;-80
2020/12/14 17:57:43;;;;;;;12.75;4.75;;;;;;;9.09;93.40;100404.63;10483082;28;20047;-79
2020/12/14 18:02:44;;;;;;;13.57;4.45;;;;;;;9.99;93.64;100525.56;10495662;28;20097;-82
2020/12/14 18:07:45;;;;;;;15.55;4.50;;;;;;;9.71;94.04;100494.28;10458347;28;20040;-82
2020/12/14 18:12:46;;;;;;;11.98;4.63;;;;;;;10.01;94.61;100523.28;10453834;28;20033;-81
2020/12/14 18:17:46;;;;;;;11.60;4.15;;;;;;;10.04;94.66;100505.56;10463545;28;20488;-81
2020/12/14 18:22:47;;;;;;;11.80;4.50;;;;;;;9.91;96.86;100496.91;10460926;28;20367;-79
2020/12/14 18:27:47;;;;;;;9.50;4.07;;;;;;;9.92;97.25;100471.44;10441840;28;20049;-82
2020/12/14 18:33:44;;;;;;;13.80;4.82;;;;;;;9.99;97.80;100509.34;10415270;28;20060;-79
2020/12/14 21:24:30;;;;;;;12.75;5.47;;;;;;;10.09;100.00;100481.75;10417241;28;20038;-80
2020/12/14 21:29:30;;;;;;;12.90;4.78;;;;;;;10.28;99.98;100510.59;10379360;28;20122;-78
2020/12/14 21:34:31;;;;;;;10.07;4.82;;;;;;;10.20;100.00;100519.69;10413922;28;20037;-81
2020/12/14 21:39:31;;;;;;;14.10;4.80;;;;;;;10.16;100.00;100511.56;10418949;28;20041;-82
2020/12/14 21:44:32;;;;;;;10.48;4.72;;;;;;;9.99;100.00;100503.94;10419870;28;20021;-77
2020/12/14 21:49:32;;;;;;;14.73;5.78;;;;;;;9.97;100.00;100511.66;10381116;28;20045;-77
2020/12/14 21:54:33;;;;;;;12.23;5.22;;;;;;;9.98;100.00;100507.81;10396424;28;20056;-79
2020/12/14 21:59:34;;;;;;;14.27;5.45;;;;;;;9.87;100.00;100506.88;10413771;28;20096;-78
2020/12/14 22:04:34;;;;;;;9.10;4.70;;;;;;;10.08;100.00;100517.97;10406116;28;20057;-78
2020/12/14 22:09:35;;;;;;;11.55;6.07;;;;;;;9.93;100.00;100516.22;10433659;28;20053;-78
2020/12/14 22:14:35;;;;;;;11.50;5.60;;;;;;;9.23;100.00;100426.44;10409286;28;20461;-78
2020/12/14 22:19:35;;;;;;;12.30;5.72;;;;;;;9.85;100.00;100490.25;10426336;28;20053;-78
2020/12/14 22:24:38;;;;;;;14.75;7.53;;;;;;;9.97;100.00;100537.88;10415749;28;20028;-78
2020/12/14 22:29:38;;;;;;;16.45;7.20;;;;;;;10.03;100.00;100536.44;10413686;28;20047;-77
2020/12/14 22:34:39;;;;;;;14.18;7.40;;;;;;;9.68;100.00;100484.19;10410185;28;20375;-76
2020/12/14 22:39:39;;;;;;;11.15;6.05;;;;;;;9.86;100.00;100521.50;10409420;28;20059;-76
2020/12/14 22:44:39;;;;;;;12.40;4.75;;;;;;;9.90;100.00;100511.53;10429404;28;20040;-77
2020/12/14 22:49:40;;;;;;;10.98;4.28;;;;;;;10.08;99.05;100545.00;10413360;28;20553;-77
2020/12/14 22:54:41;;;;;;;7.47;4.00;;;;;;;10.12;98.99;100537.72;10428658;28;20819;-77
2020/12/14 22:59:41;;;;;;;7.38;3.65;;;;;;;10.11;98.50;100543.47;10412457;28;20044;-77
2020/12/14 23:04:41;;;;;;;7.93;4.63;;;;;;;9.79;99.30;100470.13;10400703;28;20402;-77
2020/12/14 23:09:42;;;;;;;8.40;4.30;;;;;;;9.87;98.87;100479.88;10413850;28;20056;-76
2020/12/14 23:14:42;;;;;;;9.00;4.05;;;;;;;10.03;99.06;100518.31;10431068;28;20037;-77
2020/12/14 23:19:43;;;;;;;11.20;4.47;;;;;;;10.06;99.08;100497.88;10426636;28;20386;-77
2020/12/14 23:24:43;;;;;;;8.45;4.80;;;;;;;9.45;99.46;100434.88;10425581;28;20041;-78
2020/12/14 23:29:44;;;;;;;8.82;4.65;;;;;;;10.12;99.21;100507.25;10431152;28;20045;-76
2020/12/14 23:34:45;;;;;;;10.55;6.25;;;;;;;9.99;98.83;100482.34;10422969;28;20044;-76
2020/12/14 23:39:46;;;;;;;13.68;5.80;;;;;;;9.79;98.81;100451.22;10423999;28;20033;-78
2020/12/14 23:44:49;;;;;;;9.15;5.50;;;;;;;9.80;98.61;100468.97;10410688;28;20183;-78
2020/12/14 23:49:50;;;;;;;10.55;5.88;;;;;;;10.02;99.31;100508.66;10395264;28;20045;-78
2020/12/14 23:54:51;;;;;;;11.25;6.32;;;;;;;10.13;98.38;100514.97;10415259;28;20052;-78
2020/12/14 23:59:51;;;;;;;9.13;4.93;;;;;;;10.05;97.36;100496.34;10425931;28;20383;-78
